Happy Valentine's Day! 

Flight Track Log - Related Links

Times and Time Zones

All times are in EDT time to prevent confusion due to time zone crossing. See the AWE1940 flight status page for this flight to view local times or setup timezone preferences in your user account.


Time Position Orientation Groundspeed Altitude Reporting Facility
EDT Latitude Longitude Course Direction KTS MPH feet Rate Location/Type
Sat 10:31:15 PM 35.2306 -80.9392 72° East 174 200 1,400  Level Atlanta Center
Sat 10:32:10 PM 35.2783 -80.9272 12° North 206 237 3,200 2,069 Climbing Atlanta Center
Sat 10:33:00 PM 35.1511 -80.5993 29° Northeast  Level FlightAware Approximate
Sat 10:33:11 PM 35.2908 -80.8481 79° East 273 314 5,400  Level Atlanta Center
Sat 10:34:00 PM 35.2599 -80.5239 30° Northeast  Level FlightAware Approximate
Sat 10:34:20 PM 35.3003 -80.7356 84° East 285 328 9,000  Level Atlanta Center
Sat 10:35:00 PM 35.3423 -80.4329 72° East  Level FlightAware Approximate
Sat 10:35:20 PM 35.3119 -80.6283 82° East 299 344 10,800  Level Atlanta Center
Sat 10:36:00 PM 35.3807 -80.2871 72° East  Level FlightAware Approximate
Sat 10:36:20 PM 35.3214 -80.5208 84° East 329 379 12,500  Level Atlanta Center
Sat 10:37:20 PM 35.3553 -80.3922 72° East 366 421 14,800 2,550 Climbing Atlanta Center
Sat 10:38:20 PM 35.3933 -80.2656 70° East 393 452 17,600 2,356 Climbing Atlanta Center
Sat 10:40:31 PM 35.4822 -79.9436 71° East 429 494 22,300 2,021 Climbing Washington Center
Sat 10:41:33 PM 35.5208 -79.7950 72° East 439 505 24,100 1,770 Climbing Washington Center
Sat 10:42:33 PM 35.5597 -79.6414 73° East 459 528 25,900 2,050 Climbing Washington Center
Sat 10:43:33 PM 35.5978 -79.4978 72° East 482 555 28,200 2,339 Climbing Washington Center
Sat 10:44:31 PM 35.6508 -79.3419 67° East 464 534 30,500 1,424 Climbing Washington Center
Sat 10:45:31 PM 35.7233 -79.2225 53° Northeast 434 499 31,000 250 Climbing Washington Center
Sat 10:46:31 PM 35.8217 -79.1475 32° Northeast 409 471 31,000  Level Washington Center
Sat 10:47:31 PM 35.8858 -79.0222 58° Northeast 419 482 31,000  Level Washington Center
Sat 10:48:32 PM 35.8819 -78.8556 92° East 425 489 31,000  Level Washington Center
Sat 10:49:32 PM 35.9156 -78.7003 75° East 448 516 31,000  Level Washington Center
Sat 10:50:32 PM 35.9858 -78.5619 58° Northeast 448 516 31,000  Level Washington Center
Sat 10:51:31 PM 36.0494 -78.4256 60° Northeast 448 516 31,000  Level Washington Center
Sat 10:52:33 PM 36.1153 -78.2892 59° Northeast 458 527 31,000  Level Washington Center
Sat 10:53:31 PM 36.1831 -78.1500 59° Northeast 458 527 31,000  Level Washington Center
Sat 10:54:32 PM 36.2397 -78.0256 61° Northeast 458 527 31,000  Level Washington Center
Sat 10:55:31 PM 36.3072 -77.8911 58° Northeast 458 527 31,000  Level Washington Center
Sat 10:56:31 PM 36.3703 -77.7536 60° Northeast 458 527 31,000  Level Washington Center
Sat 10:57:31 PM 36.4353 -77.6161 60° Northeast 458 527 31,000  Level Washington Center
Sat 10:58:31 PM 36.4981 -77.4756 61° Northeast 453 521 31,000  Level Washington Center
Sat 10:59:33 PM 36.5606 -77.3425 60° Northeast 453 521 31,000  Level Washington Center
Sat 11:00:33 PM 36.6272 -77.2017 59° Northeast 453 521 31,000  Level Washington Center
Sat 11:01:31 PM 36.6917 -77.0581 61° Northeast 453 521 31,000  Level Washington Center
Sat 11:02:31 PM 36.7783 -76.9533 44° Northeast 453 521 31,000  Level Washington Center
Sat 11:03:32 PM 36.8775 -76.8667 35° Northeast 432 497 31,000  Level Washington Center
Sat 11:04:31 PM 36.9722 -76.7772 37° Northeast 427 491 31,000  Level Washington Center
Sat 11:05:31 PM 37.0711 -76.6931 34° Northeast 427 491 31,000  Level Washington Center
Sat 11:06:31 PM 37.1636 -76.6031 38° Northeast 422 486 31,000  Level Washington Center
Sat 11:07:31 PM 37.2686 -76.5078 36° Northeast 427 491 31,000  Level Washington Center
Sat 11:08:32 PM 37.3631 -76.4203 36° Northeast 427 491 31,000  Level Washington Center
Sat 11:09:31 PM 37.4575 -76.3347 36° Northeast 422 486 31,000  Level Washington Center
Sat 11:10:33 PM 37.5497 -76.2519 35° Northeast 417 480 31,000  Level Washington Center
Sat 11:11:31 PM 37.6442 -76.1661 36° Northeast 412 474 31,000 -51 Level Washington Center
Sat 11:12:31 PM 37.7364 -76.0856 35° Northeast 412 474 30,900  Descending Washington Center
Sat 11:13:32 PM 37.8242 -75.9967 39° Northeast 406 467 31,000 50 Climbing Washington Center
Sat 11:14:31 PM 37.9183 -75.9103 36° Northeast 411 473 31,000  Level Washington Center
Sat 11:15:31 PM 38.0122 -75.8236 36° Northeast 411 473 31,000  Level Washington Center
Sat 11:16:31 PM 38.1042 -75.7342 37° Northeast 411 473 31,000  Level Washington Center
Sat 11:17:33 PM 38.1939 -75.6500 36° Northeast 411 473 31,000  Level Washington Center
Sat 11:18:31 PM 38.2900 -75.5600 36° Northeast 411 473 31,000 -51 Level Washington Center
Sat 11:19:31 PM 38.3775 -75.4936 31° Northeast 416 479 30,900 -49 Descending Washington Center
Sat 11:20:33 PM 38.4836 -75.4539 16° North 390 449 30,900  Level Washington Center
Sat 11:21:31 PM 38.5858 -75.4031 21° North 390 449 30,900  Level Washington Center
Sat 11:22:33 PM 38.6878 -75.3389 26° Northeast 390 449 30,900 -350 Level Washington Center
Sat 11:23:31 PM 38.7856 -75.2747 27° Northeast 395 455 30,200 -857 Descending Washington Center
Sat 11:24:32 PM 38.8833 -75.2050 29° Northeast 401 461 29,200 -639 Descending Washington Center
Sat 11:25:33 PM 38.9811 -75.1378 28° Northeast 396 456 28,900 -151 Descending Washington Center
Sat 11:26:31 PM 39.0808 -75.0703 28° Northeast 391 450 28,900  Level Washington Center
Sat 11:27:31 PM 39.1931 -74.9944 28° Northeast 391 450 28,900  Level Washington Center
Sat 11:28:33 PM 39.2928 -74.9264 28° Northeast 391 450 28,900  Level Washington Center
Sat 11:30:31 PM 39.4844 -74.7894 29° Northeast 392 451 28,900  Level New York Center
Sat 11:31:31 PM 39.5867 -74.7200 28° Northeast 398 458 28,900  Level New York Center
Sat 11:32:30 PM 39.6828 -74.6553 27° Northeast 398 458 28,900 -454 Level New York Center
Sat 11:33:30 PM 39.7922 -74.6208 14° North 390 449 28,000 -893 Descending New York Center
Sat 11:34:31 PM 39.9036 -74.5917 11° North 390 449 27,100 -555 Descending New York Center
Sat 11:35:29 PM 40.0150 -74.5625 11° North 400 460 26,900 -101 Descending New York Center
Sat 11:36:30 PM 40.1244 -74.5306 13° North 400 460 26,900  Level New York Center
Sat 11:37:29 PM 40.2381 -74.5014 11° North 400 460 26,900  Level New York Center
Sat 11:38:31 PM 40.3453 -74.4717 12° North 400 460 26,900  Level New York Center
Sat 11:39:29 PM 40.4589 -74.4397 12° North 400 460 26,900 -202 Level New York Center
Sat 11:40:30 PM 40.5681 -74.4100 12° North 400 460 26,500 -800 Descending New York Center
Sat 11:42:29 PM 40.7919 -74.3508 11° North 400 460 24,500 -872 Descending Boston Center
Sat 11:43:29 PM 40.9008 -74.3183 13° North 405 466 23,900 -300 Descending Boston Center
Sat 11:44:29 PM 41.0097 -74.2831 14° North 405 466 23,900  Level Boston Center
Sat 11:45:29 PM 41.1208 -74.2503 13° North 405 466 23,900  Level Boston Center
Sat 11:46:29 PM 41.2339 -74.2150 13° North 405 466 23,900  Level Boston Center
Sat 11:47:29 PM 41.3325 -74.1789 15° North 405 466 23,900  Level Boston Center
Sat 11:48:29 PM 41.4433 -74.1486 12° North 405 466 23,900 -700 Level Boston Center
Sat 11:49:29 PM 41.5564 -74.1158 12° North 412 474 22,500 -1,800 Descending Boston Center
Sat 11:50:29 PM 41.6633 -74.0825 13° North 407 468 20,300 -2,300 Descending Boston Center
Sat 11:51:29 PM 41.7636 -74.0489 14° North 379 436 17,900 -2,200 Descending Boston Center
Sat 11:52:29 PM 41.8725 -74.0153 13° North 366 421 15,900 -1,923 Descending Boston Center
Sat 11:52:47 PM 41.8997 -74.0075 12° North 360 414 15,400 -1,600 Descending Boston Center
Sat 11:53:29 PM 41.9583 -73.9894 13° North 356 410 14,300 -1,791 Descending Boston Center
Sat 11:53:54 PM 42.0044 -73.9739 14° North 361 415 13,400 -2,100 Descending Boston Center
Sat 11:54:29 PM 42.0631 -73.9558 13° North 351 404 12,200 -2,091 Descending Boston Center
Sat 11:55:00 PM 42.1092 -73.9400 14° North 338 389 11,100 -1,300 Descending Boston Center
Sat 11:55:29 PM 42.1447 -73.9297 12° North 340 391 10,900 -295 Descending Boston Center
Sat 11:56:01 PM 42.1928 -73.9169 11° North 285 328 10,800 -600 Descending Boston Center
Sat 11:56:29 PM 42.2242 -73.9036 17° North 288 331 10,300 -1,574 Descending Boston Center
Sat 11:57:02 PM 42.2619 -73.8903 15° North 237 273 9,200 -1,600 Descending Boston Center
Sat 11:57:29 PM 42.2850 -73.8853 North 250 288 8,700 -1,500 Descending Boston Center
Sat 11:58:02 PM 42.3225 -73.8750 11° North 222 255 7,700 -2,000 Descending Boston Center
Sat 11:58:29 PM 42.3497 -73.8644 16° North 223 257 6,700 -2,066 Descending Boston Center
Sat 11:59:03 PM 42.3811 -73.8539 14° North 213 245 5,600 -1,900 Descending Boston Center
Sat 11:59:29 PM 42.4042 -73.8517 North 218 251 4,800 -1,100 Descending Boston Center
Sun 12:00:03 AM 42.4372 -73.8747 333° Northwest 212 244 4,500 -300 Descending Boston Center
Sun 12:00:29 AM 42.4619 -73.8867 340° North 212 244 4,500  Level Boston Center
Sun 12:01:04 AM 42.4908 -73.9100 329° Northwest 205 236 4,500  Level Boston Center
Sun 12:01:29 AM 42.5056 -73.9103 359° North 194 223 4,500  Level Boston Center
Sun 12:02:05 AM 42.5408 -73.9139 356° North 174 200 4,500 -417 Level Boston Center
Sun 12:02:41 AM 42.5681 -73.9117 North 181 208 4,000 -500 Descending Boston Center
Sun 12:03:05 AM 42.5847 -73.9119 359° North 153 176 4,000 -800 Level Boston Center
Sun 12:03:41 AM 42.6017 -73.8869 47° Northeast 150 173 3,200 -984 Descending Boston Center
Sun 12:04:06 AM 42.6103 -73.8647 62° Northeast 176 203 3,000 -1,000 Descending Boston Center
Sun 12:04:41 AM 42.6253 -73.8283 61° Northeast 143 165 2,200 -1,000 Descending Boston Center
Sun 12:05:06 AM 42.6361 -73.8003 62° Northeast 187 215 2,000 -480 Descending Boston Center

Login

Don't have an account? Register now (free) for customized features, flight alerts, and more!